sensor_id;sensor_type;location;lat;lon;timestamp;pressure;altitude;pressure_sealevel;temperature;humidity
73306;BME280;61530;51.158;0.880;2023-08-20T00:00:47;1017.06;;;14.6875;38.7539
73306;BME280;61530;51.158;0.880;2023-08-20T00:01:57;1017.04;;;14.6875;38.2287
73306;BME280;61530;51.158;0.880;2023-08-20T00:02:59;1017.06;;;14.625;38.1176
73306;BME280;61530;51.158;0.880;2023-08-20T00:03:59;1017.09;;;14.6875;38.8071
73306;BME280;61530;51.158;0.880;2023-08-20T00:05:05;1017.07;;;14.75;39.0531
73306;BME280;61530;51.158;0.880;2023-08-20T00:06:05;1017.05;;;14.6875;39.0412
73306;BME280;61530;51.158;0.880;2023-08-20T00:07:11;1017.03;;;14.75;39.0942
73306;BME280;61530;51.158;0.880;2023-08-20T00:08:16;1017.07;;;14.75;39.1636
73306;BME280;61530;51.158;0.880;2023-08-20T00:09:16;1017.05;;;14.625;37.9669
73306;BME280;61530;51.158;0.880;2023-08-20T00:10:22;1017.06;;;14.5;37.4944
73306;BME280;61530;51.158;0.880;2023-08-20T00:11:28;1017.07;;;14.5625;38.6977
73306;BME280;61530;51.158;0.880;2023-08-20T00:12:28;1017.08;;;14.625;38.3766
73306;BME280;61530;51.158;0.880;2023-08-20T00:13:35;1017.09;;;14.6875;38.5982
73306;BME280;61530;51.158;0.880;2023-08-20T00:14:57;1017.1;;;14.6875;39.3041
73306;BME280;61530;51.158;0.880;2023-08-20T00:15:41;1017.07;;;14.6875;38.3244
73306;BME280;61530;51.158;0.880;2023-08-20T00:16:47;1017.09;;;14.75;39.0308
73306;BME280;61530;51.158;0.880;2023-08-20T00:17:53;1017.1;;;14.75;39.4156
73306;BME280;61530;51.158;0.880;2023-08-20T00:18:53;1017.1;;;14.6875;37.7817
73306;BME280;61530;51.158;0.880;2023-08-20T00:19:59;1017.09;;;14.5;37.9048
73306;BME280;61530;51.158;0.880;2023-08-20T00:21:05;1017.13;;;14.4375;38.2023
73306;BME280;61530;51.158;0.880;2023-08-20T00:22:04;1017.13;;;14.5;39.0887
73306;BME280;61530;51.158;0.880;2023-08-20T00:23:11;1017.19;;;14.5;39.1827
73306;BME280;61530;51.158;0.880;2023-08-20T00:24:17;1017.18;;;14.5625;38.8204
73306;BME280;61530;51.158;0.880;2023-08-20T00:25:17;1017.18;;;14.5;39.0413
73306;BME280;61530;51.158;0.880;2023-08-20T00:26:23;1017.19;;;14.5625;38.5278
73306;BME280;61530;51.158;0.880;2023-08-20T00:27:28;1017.19;;;14.6875;39.1065
73306;BME280;61530;51.158;0.880;2023-08-20T00:28:28;1017.19;;;14.5625;39.1761
73306;BME280;61530;51.158;0.880;2023-08-20T00:29:34;1017.2;;;14.625;38.365
73306;BME280;61530;51.158;0.880;2023-08-20T00:30:40;1017.19;;;14.5;38.2474
73306;BME280;61530;51.158;0.880;2023-08-20T00:31:40;1017.2;;;14.375;37.2381
73306;BME280;61530;51.158;0.880;2023-08-20T00:32:46;1017.24;;;14.3125;38.3653
73306;BME280;61530;51.158;0.880;2023-08-20T00:33:52;1017.27;;;14.4375;38.3012
73306;BME280;61530;51.158;0.880;2023-08-20T00:34:52;1017.3;;;14.5;39.0432
73306;BME280;61530;51.158;0.880;2023-08-20T00:36:00;1017.3;;;14.4375;38.7274
73306;BME280;61530;51.158;0.880;2023-08-20T00:37:05;1017.29;;;14.375;38.4586
73306;BME280;61530;51.158;0.880;2023-08-20T00:38:06;1017.33;;;14.25;37.7469
73306;BME280;61530;51.158;0.880;2023-08-20T00:39:11;1017.34;;;14.1875;38.0085
73306;BME280;61530;51.158;0.880;2023-08-20T00:40:18;1017.33;;;14.1875;37.827
73306;BME280;61530;51.158;0.880;2023-08-20T00:41:17;1017.35;;;14.25;38.2357
73306;BME280;61530;51.158;0.880;2023-08-20T00:42:24;1017.39;;;14.4375;37.9734
73306;BME280;61530;51.158;0.880;2023-08-20T00:43:29;1017.4;;;14.3125;37.2085
73306;BME280;61530;51.158;0.880;2023-08-20T00:44:30;1017.47;;;14.3125;37.5477
73306;BME280;61530;51.158;0.880;2023-08-20T00:45:35;1017.45;;;14.5;38.4472
73306;BME280;61530;51.158;0.880;2023-08-20T00:46:41;1017.45;;;14.5;39.3111
73306;BME280;61530;51.158;0.880;2023-08-20T00:47:41;1017.45;;;14.5;38.4419
73306;BME280;61530;51.158;0.880;2023-08-20T00:48:47;1017.41;;;14.375;38.6345
73306;BME280;61530;51.158;0.880;2023-08-20T00:49:53;1017.41;;;14.3125;37.3577
73306;BME280;61530;51.158;0.880;2023-08-20T00:50:54;1017.38;;;14.3125;39.0555
73306;BME280;61530;51.158;0.880;2023-08-20T00:52:00;1017.38;;;14.375;38.7981
73306;BME280;61530;51.158;0.880;2023-08-20T00:53:06;1017.36;;;14.3125;39.0665
73306;BME280;61530;51.158;0.880;2023-08-20T00:54:05;1017.36;;;14.375;39.4403
73306;BME280;61530;51.158;0.880;2023-08-20T00:55:12;1017.38;;;14.375;39.2536
73306;BME280;61530;51.158;0.880;2023-08-20T00:56:18;1017.41;;;14.4375;38.9037
73306;BME280;61530;51.158;0.880;2023-08-20T00:57:18;1017.41;;;14.4375;39.2069
73306;BME280;61530;51.158;0.880;2023-08-20T00:58:24;1017.42;;;14.5625;38.7522
73306;BME280;61530;51.158;0.880;2023-08-20T00:59:30;1017.45;;;14.5;39.1361
73306;BME280;61530;51.158;0.880;2023-08-20T01:00:29;1017.43;;;14.5;38.6235
73306;BME280;61530;51.158;0.880;2023-08-20T01:01:36;1017.4;;;14.4375;39.4283
73306;BME280;61530;51.158;0.880;2023-08-20T01:02:41;1017.4;;;14.5;38.8682
73306;BME280;61530;51.158;0.880;2023-08-20T01:03:41;1017.38;;;14.4375;38.5535
73306;BME280;61530;51.158;0.880;2023-08-20T01:04:48;1017.39;;;14.5;39.1026
73306;BME280;61530;51.158;0.880;2023-08-20T01:06:01;1017.4;;;14.4375;39.416
73306;BME280;61530;51.158;0.880;2023-08-20T01:07:04;1017.38;;;14.4375;38.2153
73306;BME280;61530;51.158;0.880;2023-08-20T01:08:08;1017.4;;;14.375;39.061
73306;BME280;61530;51.158;0.880;2023-08-20T01:09:14;1017.43;;;14.4375;38.6242
73306;BME280;61530;51.158;0.880;2023-08-20T01:10:11;1017.44;;;14.375;39.0961
73306;BME280;61530;51.158;0.880;2023-08-20T01:11:17;1017.47;;;14.375;37.9354
73306;BME280;61530;51.158;0.880;2023-08-20T01:12:18;1017.49;;;14.3125;38.8919
73306;BME280;61530;51.158;0.880;2023-08-20T01:13:18;1017.49;;;14.3125;37.9189
73306;BME280;61530;51.158;0.880;2023-08-20T01:14:23;1017.48;;;14.375;40.1865
73306;BME280;61530;51.158;0.880;2023-08-20T01:15:25;1017.5;;;14.4375;39.4753
73306;BME280;61530;51.158;0.880;2023-08-20T01:16:31;1017.49;;;14.3125;39.638
73306;BME280;61530;51.158;0.880;2023-08-20T01:17:37;1017.5;;;14.1875;38.3426
73306;BME280;61530;51.158;0.880;2023-08-20T01:18:38;1017.51;;;14.125;38.8034
73306;BME280;61530;51.158;0.880;2023-08-20T01:19:44;1017.52;;;14.1875;38.6224
73306;BME280;61530;51.158;0.880;2023-08-20T01:20:57;1017.5;;;14.375;39.3639
73306;BME280;61530;51.158;0.880;2023-08-20T01:22:02;1017.49;;;14.3125;39.4283
73306;BME280;61530;51.158;0.880;2023-08-20T01:23:05;1017.51;;;14.25;38.4241
73306;BME280;61530;51.158;0.880;2023-08-20T01:24:05;1017.53;;;14.25;38.7978
73306;BME280;61530;51.158;0.880;2023-08-20T01:25:11;1017.54;;;14.25;39.1313
73306;BME280;61530;51.158;0.880;2023-08-20T01:26:20;1017.57;;;14.25;38.7047
73306;BME280;61530;51.158;0.880;2023-08-20T01:27:23;1017.53;;;14.3125;39.0726
73306;BME280;61530;51.158;0.880;2023-08-20T01:28:25;1017.52;;;14.1875;38.3497
73306;BME280;61530;51.158;0.880;2023-08-20T01:29:21;1017.57;;;14.0625;39.0615
73306;BME280;61530;51.158;0.880;2023-08-20T01:30:21;1017.55;;;14.0;38.2042
73306;BME280;61530;51.158;0.880;2023-08-20T01:31:27;1017.56;;;14.125;38.0817
73306;BME280;61530;51.158;0.880;2023-08-20T01:32:33;1017.56;;;14.125;39.2309
73306;BME280;61530;51.158;0.880;2023-08-20T01:33:33;1017.56;;;14.125;39.4932
73306;BME280;61530;51.158;0.880;2023-08-20T01:34:39;1017.54;;;14.1875;38.8814
73306;BME280;61530;51.158;0.880;2023-08-20T01:35:44;1017.54;;;14.25;39.5343
73306;BME280;61530;51.158;0.880;2023-08-20T01:36:46;1017.53;;;14.1875;39.0735
73306;BME280;61530;51.158;0.880;2023-08-20T01:37:46;1017.54;;;14.25;39.3006
73306;BME280;61530;51.158;0.880;2023-08-20T01:38:52;1017.52;;;14.0625;38.9566
73306;BME280;61530;51.158;0.880;2023-08-20T01:39:54;1017.51;;;14.0;38.9915
73306;BME280;61530;51.158;0.880;2023-08-20T01:40:55;1017.5;;;14.1875;39.5576
73306;BME280;61530;51.158;0.880;2023-08-20T01:41:55;1017.5;;;14.125;39.0029
73306;BME280;61530;51.158;0.880;2023-08-20T01:43:01;1017.49;;;14.125;38.443
73306;BME280;61530;51.158;0.880;2023-08-20T01:44:02;1017.51;;;14.0625;38.4484
73306;BME280;61530;51.158;0.880;2023-08-20T01:45:08;1017.48;;;14.125;39.1144
73306;BME280;61530;51.158;0.880;2023-08-20T01:46:13;1017.47;;;14.1875;38.8695
73306;BME280;61530;51.158;0.880;2023-08-20T01:47:13;1017.48;;;14.125;37.9653
73306;BME280;61530;51.158;0.880;2023-08-20T01:48:20;1017.47;;;14.0625;38.1168
73306;BME280;61530;51.158;0.880;2023-08-20T01:49:25;1017.48;;;13.9375;38.2976
73306;BME280;61530;51.158;0.880;2023-08-20T01:50:25;1017.47;;;13.875;38.6646
73306;BME280;61530;51.158;0.880;2023-08-20T01:51:31;1017.51;;;13.9375;38.5767
73306;BME280;61530;51.158;0.880;2023-08-20T01:52:37;1017.53;;;14.0;38.5651
73306;BME280;61530;51.158;0.880;2023-08-20T01:53:37;1017.52;;;14.0;38.39
73306;BME280;61530;51.158;0.880;2023-08-20T01:54:44;1017.55;;;13.9375;38.2027
73306;BME280;61530;51.158;0.880;2023-08-20T01:55:49;1017.52;;;14.125;39.1779
73306;BME280;61530;51.158;0.880;2023-08-20T01:56:50;1017.51;;;14.125;38.2273
73306;BME280;61530;51.158;0.880;2023-08-20T01:57:55;1017.52;;;14.125;38.7107
73306;BME280;61530;51.158;0.880;2023-08-20T01:59:02;1017.52;;;14.1875;38.4378
73306;BME280;61530;51.158;0.880;2023-08-20T02:00:02;1017.51;;;14.25;39.348
73306;BME280;61530;51.158;0.880;2023-08-20T02:01:07;1017.5;;;14.0625;37.9955
73306;BME280;61530;51.158;0.880;2023-08-20T02:02:13;1017.51;;;14.0;38.6184
73306;BME280;61530;51.158;0.880;2023-08-20T02:03:13;1017.54;;;14.0625;37.9945
73306;BME280;61530;51.158;0.880;2023-08-20T02:04:19;1017.54;;;13.9375;37.7621
73306;BME280;61530;51.158;0.880;2023-08-20T02:05:25;1017.57;;;13.75;37.2725
73306;BME280;61530;51.158;0.880;2023-08-20T02:06:25;1017.58;;;13.8125;37.716
73306;BME280;61530;51.158;0.880;2023-08-20T02:07:31;1017.61;;;13.75;38.8703
73306;BME280;61530;51.158;0.880;2023-08-20T02:08:37;1017.61;;;13.8125;38.2356
73306;BME280;61530;51.158;0.880;2023-08-20T02:09:37;1017.61;;;13.75;38.386
73306;BME280;61530;51.158;0.880;2023-08-20T02:10:43;1017.63;;;13.875;39.2788
73306;BME280;61530;51.158;0.880;2023-08-20T02:11:49;1017.63;;;13.9375;39.1965
73306;BME280;61530;51.158;0.880;2023-08-20T02:12:49;1017.63;;;14.0;38.6839
73306;BME280;61530;51.158;0.880;2023-08-20T02:13:55;1017.65;;;13.9375;39.3952
73306;BME280;61530;51.158;0.880;2023-08-20T02:15:02;1017.65;;;13.8125;39.0921
73306;BME280;61530;51.158;0.880;2023-08-20T02:16:03;1017.68;;;13.875;38.882
73306;BME280;61530;51.158;0.880;2023-08-20T02:17:08;1017.71;;;13.8125;38.5728
73306;BME280;61530;51.158;0.880;2023-08-20T02:18:13;1017.7;;;13.875;38.9457
73306;BME280;61530;51.158;0.880;2023-08-20T02:19:14;1017.69;;;13.875;38.8941
73306;BME280;61530;51.158;0.880;2023-08-20T02:20:19;1017.66;;;13.875;39.698
73306;BME280;61530;51.158;0.880;2023-08-20T02:21:25;1017.71;;;13.875;38.6034
73306;BME280;61530;51.158;0.880;2023-08-20T02:22:25;1017.69;;;13.75;38.8936
73306;BME280;61530;51.158;0.880;2023-08-20T02:23:31;1017.7;;;13.6875;38.8355
73306;BME280;61530;51.158;0.880;2023-08-20T02:24:37;1017.72;;;13.6875;38.1824
73306;BME280;61530;51.158;0.880;2023-08-20T02:25:37;1017.73;;;13.75;38.9289
73306;BME280;61530;51.158;0.880;2023-08-20T02:26:43;1017.72;;;13.6875;38.7425
73306;BME280;61530;51.158;0.880;2023-08-20T02:27:49;1017.72;;;13.8125;38.7648
73306;BME280;61530;51.158;0.880;2023-08-20T02:28:51;1017.72;;;13.75;38.2694
73306;BME280;61530;51.158;0.880;2023-08-20T02:29:57;1017.71;;;13.6875;37.693
73306;BME280;61530;51.158;0.880;2023-08-20T02:31:04;1017.7;;;13.6875;37.4722
73306;BME280;61530;51.158;0.880;2023-08-20T02:32:05;1017.7;;;13.75;38.3054
73306;BME280;61530;51.158;0.880;2023-08-20T02:33:05;1017.7;;;13.8125;38.8771
73306;BME280;61530;51.158;0.880;2023-08-20T02:34:11;1017.73;;;13.6875;38.4507
73306;BME280;61530;51.158;0.880;2023-08-20T02:35:17;1017.69;;;13.8125;38.8996
73306;BME280;61530;51.158;0.880;2023-08-20T02:36:17;1017.68;;;13.75;37.8864
73306;BME280;61530;51.158;0.880;2023-08-20T02:37:23;1017.68;;;13.6875;38.7134
73306;BME280;61530;51.158;0.880;2023-08-20T02:38:29;1017.68;;;13.875;38.2525
73306;BME280;61530;51.158;0.880;2023-08-20T02:39:29;1017.69;;;13.875;38.6839
73306;BME280;61530;51.158;0.880;2023-08-20T02:40:40;1017.67;;;13.8125;38.2056
73306;BME280;61530;51.158;0.880;2023-08-20T02:41:41;1017.7;;;13.8125;38.6594
73306;BME280;61530;51.158;0.880;2023-08-20T02:42:41;1017.7;;;13.9375;38.9116
73306;BME280;61530;51.158;0.880;2023-08-20T02:43:48;1017.71;;;14.0625;39.4014
73306;BME280;61530;51.158;0.880;2023-08-20T02:44:53;1017.7;;;14.0;39.0221
73306;BME280;61530;51.158;0.880;2023-08-20T02:45:53;1017.73;;;13.9375;37.9095
73306;BME280;61530;51.158;0.880;2023-08-20T02:46:59;1017.75;;;13.75;37.8341
73306;BME280;61530;51.158;0.880;2023-08-20T02:48:06;1017.75;;;13.6875;37.9042
73306;BME280;61530;51.158;0.880;2023-08-20T02:49:06;1017.78;;;13.75;38.0677
73306;BME280;61530;51.158;0.880;2023-08-20T02:50:11;1017.75;;;13.75;37.9232
73306;BME280;61530;51.158;0.880;2023-08-20T02:51:17;1017.72;;;13.6875;38.4412
73306;BME280;61530;51.158;0.880;2023-08-20T02:52:17;1017.73;;;13.6875;38.1617
73306;BME280;61530;51.158;0.880;2023-08-20T02:53:23;1017.73;;;13.6875;38.8541
73306;BME280;61530;51.158;0.880;2023-08-20T02:54:29;1017.75;;;13.6875;38.0973
73306;BME280;61530;51.158;0.880;2023-08-20T02:55:32;1017.78;;;13.625;38.1144
73306;BME280;61530;51.158;0.880;2023-08-20T02:56:37;1017.81;;;13.6875;38.6208
73306;BME280;61530;51.158;0.880;2023-08-20T02:57:37;1017.82;;;13.6875;38.4866
73306;BME280;61530;51.158;0.880;2023-08-20T02:58:44;1017.82;;;13.5625;38.51
73306;BME280;61530;51.158;0.880;2023-08-20T02:59:50;1017.76;;;13.75;37.8006
73306;BME280;61530;51.158;0.880;2023-08-20T03:00:49;1017.77;;;13.625;38.4412
73306;BME280;61530;51.158;0.880;2023-08-20T03:01:55;1017.79;;;13.5625;38.0457
73306;BME280;61530;51.158;0.880;2023-08-20T03:03:01;1017.8;;;13.5625;38.3488
73306;BME280;61530;51.158;0.880;2023-08-20T03:04:02;1017.82;;;13.625;38.2264
73306;BME280;61530;51.158;0.880;2023-08-20T03:05:08;1017.87;;;13.5;37.936
73306;BME280;61530;51.158;0.880;2023-08-20T03:06:13;1017.86;;;13.5625;38.8898
73306;BME280;61530;51.158;0.880;2023-08-20T03:07:13;1017.87;;;13.5;38.4069
73306;BME280;61530;51.158;0.880;2023-08-20T03:08:19;1017.91;;;13.4375;38.3617
73306;BME280;61530;51.158;0.880;2023-08-20T03:09:25;1017.93;;;13.375;38.3962
73306;BME280;61530;51.158;0.880;2023-08-20T03:10:26;1017.93;;;13.4375;39.0478
73306;BME280;61530;51.158;0.880;2023-08-20T03:11:31;1017.91;;;13.375;38.199
73306;BME280;61530;51.158;0.880;2023-08-20T03:12:33;1017.91;;;13.4375;38.5597
73306;BME280;61530;51.158;0.880;2023-08-20T03:13:38;1017.91;;;13.375;39.42
73306;BME280;61530;51.158;0.880;2023-08-20T03:14:44;1017.92;;;13.5;38.262
73306;BME280;61530;51.158;0.880;2023-08-20T03:15:50;1017.91;;;13.375;38.2099
73306;BME280;61530;51.158;0.880;2023-08-20T03:16:50;1017.9;;;13.5;38.5703
73306;BME280;61530;51.158;0.880;2023-08-20T03:17:56;1017.84;;;13.5;38.7113
73306;BME280;61530;51.158;0.880;2023-08-20T03:19:03;1017.84;;;13.375;38.6237
73306;BME280;61530;51.158;0.880;2023-08-20T03:20:03;1017.85;;;13.4375;38.9254
73306;BME280;61530;51.158;0.880;2023-08-20T03:21:08;1017.86;;;13.375;38.5238
73306;BME280;61530;51.158;0.880;2023-08-20T03:22:14;1017.86;;;13.4375;38.1857
73306;BME280;61530;51.158;0.880;2023-08-20T03:23:14;1017.86;;;13.5;38.5812
73306;BME280;61530;51.158;0.880;2023-08-20T03:24:20;1017.84;;;13.625;38.8374
73306;BME280;61530;51.158;0.880;2023-08-20T03:25:26;1017.86;;;13.8125;39.5591
73306;BME280;61530;51.158;0.880;2023-08-20T03:26:26;1017.88;;;13.8125;39.1276
73306;BME280;61530;51.158;0.880;2023-08-20T03:27:27;1017.88;;;13.875;38.4698
73306;BME280;61530;51.158;0.880;2023-08-20T03:28:33;1017.86;;;13.8125;37.7998
73306;BME280;61530;51.158;0.880;2023-08-20T03:29:39;1017.86;;;13.6875;38.1802
73306;BME280;61530;51.158;0.880;2023-08-20T03:30:45;1017.85;;;13.6875;38.7739
73306;BME280;61530;51.158;0.880;2023-08-20T03:31:45;1017.85;;;13.6875;38.6286
73306;BME280;61530;51.158;0.880;2023-08-20T03:32:51;1017.83;;;13.75;39.0877
73306;BME280;61530;51.158;0.880;2023-08-20T03:33:57;1017.85;;;13.75;38.4592
73306;BME280;61530;51.158;0.880;2023-08-20T03:34:58;1017.82;;;13.8125;39.1171
73306;BME280;61530;51.158;0.880;2023-08-20T03:36:04;1017.84;;;13.875;39.4369
73306;BME280;61530;51.158;0.880;2023-08-20T03:37:04;1017.84;;;13.8125;38.3244
73306;BME280;61530;51.158;0.880;2023-08-20T03:38:09;1017.87;;;13.75;38.5387
73306;BME280;61530;51.158;0.880;2023-08-20T03:39:15;1017.88;;;13.75;38.3002
73306;BME280;61530;51.158;0.880;2023-08-20T03:40:17;1017.9;;;13.875;38.7076
73306;BME280;61530;51.158;0.880;2023-08-20T03:41:23;1017.95;;;14.0;38.4741
73306;BME280;61530;51.158;0.880;2023-08-20T03:42:29;1017.95;;;14.0;39.1618
73306;BME280;61530;51.158;0.880;2023-08-20T03:43:29;1017.99;;;13.9375;38.1368
73306;BME280;61530;51.158;0.880;2023-08-20T03:44:35;1017.99;;;13.9375;38.754
73306;BME280;61530;51.158;0.880;2023-08-20T03:45:42;1018.02;;;14.0;38.5973
73306;BME280;61530;51.158;0.880;2023-08-20T03:46:41;1018.02;;;14.1875;38.615
73306;BME280;61530;51.158;0.880;2023-08-20T03:47:47;1018.05;;;14.0;38.7716
73306;BME280;61530;51.158;0.880;2023-08-20T03:48:48;1018.05;;;14.0625;38.5736
73306;BME280;61530;51.158;0.880;2023-08-20T03:49:54;1018.03;;;14.0625;38.2065
73306;BME280;61530;51.158;0.880;2023-08-20T03:51:00;1018.02;;;14.125;38.9051
73306;BME280;61530;51.158;0.880;2023-08-20T03:52:06;1017.99;;;14.1875;39.3011
73306;BME280;61530;51.158;0.880;2023-08-20T03:53:06;1017.98;;;14.125;38.6019
73306;BME280;61530;51.158;0.880;2023-08-20T03:54:12;1017.95;;;14.1875;38.5455
73306;BME280;61530;51.158;0.880;2023-08-20T03:55:18;1017.98;;;14.1875;38.987
73306;BME280;61530;51.158;0.880;2023-08-20T03:56:18;1017.98;;;14.125;38.8297
73306;BME280;61530;51.158;0.880;2023-08-20T03:57:24;1017.98;;;14.125;38.2525
73306;BME280;61530;51.158;0.880;2023-08-20T03:58:30;1018.02;;;14.125;38.5496
73306;BME280;61530;51.158;0.880;2023-08-20T03:59:31;1018.02;;;14.0625;38.4447
73306;BME280;61530;51.158;0.880;2023-08-20T04:00:36;1018.05;;;14.1875;38.9573
73306;BME280;61530;51.158;0.880;2023-08-20T04:01:37;1018.08;;;14.25;39.1962
73306;BME280;61530;51.158;0.880;2023-08-20T04:02:42;1018.07;;;14.1875;38.94
73306;BME280;61530;51.158;0.880;2023-08-20T04:03:49;1018.09;;;14.1875;38.9398
73306;BME280;61530;51.158;0.880;2023-08-20T04:04:55;1018.09;;;14.375;39.4118
73306;BME280;61530;51.158;0.880;2023-08-20T04:05:54;1018.11;;;14.25;38.7708
73306;BME280;61530;51.158;0.880;2023-08-20T04:07:00;1018.13;;;14.375;40.1396
73306;BME280;61530;51.158;0.880;2023-08-20T04:08:07;1018.13;;;14.375;39.2897
73306;BME280;61530;51.158;0.880;2023-08-20T04:09:06;1018.13;;;14.25;39.2553
73306;BME280;61530;51.158;0.880;2023-08-20T04:10:12;1018.17;;;14.3125;39.3476
73306;BME280;61530;51.158;0.880;2023-08-20T04:11:18;1018.16;;;14.375;39.5341
73306;BME280;61530;51.158;0.880;2023-08-20T04:12:18;1018.16;;;14.4375;39.5
73306;BME280;61530;51.158;0.880;2023-08-20T04:13:24;1018.16;;;14.3125;39.5224
73306;BME280;61530;51.158;0.880;2023-08-20T04:14:30;1018.17;;;14.3125;39.2835
73306;BME280;61530;51.158;0.880;2023-08-20T04:15:30;1018.15;;;14.375;39.5227
73306;BME280;61530;51.158;0.880;2023-08-20T04:16:36;1018.18;;;14.4375;39.9069
73306;BME280;61530;51.158;0.880;2023-08-20T04:17:42;1018.22;;;14.5625;39.7666
73306;BME280;61530;51.158;0.880;2023-08-20T04:18:42;1018.22;;;14.5625;39.8597
73306;BME280;61530;51.158;0.880;2023-08-20T04:19:49;1018.23;;;14.5625;39.3698
73306;BME280;61530;51.158;0.880;2023-08-20T04:20:54;1018.26;;;14.625;39.8071
73306;BME280;61530;51.158;0.880;2023-08-20T04:21:54;1018.26;;;14.6875;39.9057
73306;BME280;61530;51.158;0.880;2023-08-20T04:23:00;1018.28;;;14.625;39.3516
73306;BME280;61530;51.158;0.880;2023-08-20T04:24:06;1018.28;;;14.6875;39.9989
73306;BME280;61530;51.158;0.880;2023-08-20T04:25:07;1018.29;;;14.8125;39.777
73306;BME280;61530;51.158;0.880;2023-08-20T04:26:12;1018.33;;;14.75;39.1061
73306;BME280;61530;51.158;0.880;2023-08-20T04:27:18;1018.37;;;14.75;39.0422
73306;BME280;61530;51.158;0.880;2023-08-20T04:28:19;1018.4;;;14.75;39.0016
73306;BME280;61530;51.158;0.880;2023-08-20T04:29:24;1018.42;;;14.75;39.2928
73306;BME280;61530;51.158;0.880;2023-08-20T04:30:30;1018.41;;;14.8125;39.2806
73306;BME280;61530;51.158;0.880;2023-08-20T04:31:30;1018.41;;;14.8125;39.3457
73306;BME280;61530;51.158;0.880;2023-08-20T04:32:36;1018.41;;;14.8125;39.6547
73306;BME280;61530;51.158;0.880;2023-08-20T04:33:42;1018.44;;;14.8125;39.3627
73306;BME280;61530;51.158;0.880;2023-08-20T04:34:42;1018.43;;;14.875;39.3621
73306;BME280;61530;51.158;0.880;2023-08-20T04:35:49;1018.46;;;14.9375;39.4612
73306;BME280;61530;51.158;0.880;2023-08-20T04:36:54;1018.46;;;14.9375;39.3151
73306;BME280;61530;51.158;0.880;2023-08-20T04:37:54;1018.44;;;14.9375;39.648
73306;BME280;61530;51.158;0.880;2023-08-20T04:39:00;1018.45;;;15.0;39.3622
73306;BME280;61530;51.158;0.880;2023-08-20T04:40:07;1018.41;;;14.875;39.4734
73306;BME280;61530;51.158;0.880;2023-08-20T04:41:06;1018.42;;;14.8125;39.4792
73306;BME280;61530;51.158;0.880;2023-08-20T04:42:12;1018.41;;;14.8125;39.6718
73306;BME280;61530;51.158;0.880;2023-08-20T04:43:18;1018.43;;;14.8125;39.666
73306;BME280;61530;51.158;0.880;2023-08-20T04:44:18;1018.41;;;14.8125;39.7887
73306;BME280;61530;51.158;0.880;2023-08-20T04:45:24;1018.45;;;14.8125;39.7591
73306;BME280;61530;51.158;0.880;2023-08-20T04:46:30;1018.45;;;14.875;39.7821
73306;BME280;61530;51.158;0.880;2023-08-20T04:47:30;1018.45;;;14.875;39.6887
73306;BME280;61530;51.158;0.880;2023-08-20T04:48:36;1018.47;;;15.0;39.3855
73306;BME280;61530;51.158;0.880;2023-08-20T04:49:42;1018.48;;;14.9375;39.6944
73306;BME280;61530;51.158;0.880;2023-08-20T04:50:42;1018.49;;;14.9375;40.1265
73306;BME280;61530;51.158;0.880;2023-08-20T04:51:48;1018.51;;;15.0;39.5551
73306;BME280;61530;51.158;0.880;2023-08-20T04:52:54;1018.51;;;14.9375;40.4654
73306;BME280;61530;51.158;0.880;2023-08-20T04:53:54;1018.53;;;14.9375;40.045
73306;BME280;61530;51.158;0.880;2023-08-20T04:55:00;1018.55;;;14.9375;39.4378
73306;BME280;61530;51.158;0.880;2023-08-20T04:56:06;1018.54;;;15.125;39.9804
73306;BME280;61530;51.158;0.880;2023-08-20T04:57:06;1018.56;;;15.0625;40.1729
73306;BME280;61530;51.158;0.880;2023-08-20T04:58:12;1018.58;;;15.125;39.7063
73306;BME280;61530;51.158;0.880;2023-08-20T04:59:18;1018.57;;;15.125;40.243
73306;BME280;61530;51.158;0.880;2023-08-20T05:00:18;1018.59;;;15.125;40.1384
73306;BME280;61530;51.158;0.880;2023-08-20T05:01:24;1018.56;;;15.0625;40.1968
73306;BME280;61530;51.158;0.880;2023-08-20T05:02:30;1018.58;;;15.125;39.4843
73306;BME280;61530;51.158;0.880;2023-08-20T05:03:30;1018.6;;;15.25;39.9162
73306;BME280;61530;51.158;0.880;2023-08-20T05:04:36;1018.6;;;15.125;40.132
73306;BME280;61530;51.158;0.880;2023-08-20T05:05:38;1018.58;;;15.1875;40.5698
73306;BME280;61530;51.158;0.880;2023-08-20T05:06:43;1018.6;;;15.1875;40.0096
73306;BME280;61530;51.158;0.880;2023-08-20T05:07:49;1018.57;;;15.1875;39.9335
73306;BME280;61530;51.158;0.880;2023-08-20T05:08:49;1018.6;;;15.125;39.8689
73306;BME280;61530;51.158;0.880;2023-08-20T05:09:56;1018.63;;;15.125;40.0211
73306;BME280;61530;51.158;0.880;2023-08-20T05:11:01;1018.64;;;15.125;40.0562
73306;BME280;61530;51.158;0.880;2023-08-20T05:12:02;1018.66;;;15.0625;40.039
73306;BME280;61530;51.158;0.880;2023-08-20T05:13:08;1018.69;;;15.0625;39.928
73306;BME280;61530;51.158;0.880;2023-08-20T05:14:13;1018.69;;;15.0;40.278
73306;BME280;61530;51.158;0.880;2023-08-20T05:15:13;1018.7;;;15.125;40.1844
73306;BME280;61530;51.158;0.880;2023-08-20T05:16:19;1018.71;;;15.25;39.9157
73306;BME280;61530;51.158;0.880;2023-08-20T05:17:25;1018.72;;;15.125;40.4646
73306;BME280;61530;51.158;0.880;2023-08-20T05:18:25;1018.73;;;15.1875;40.1261
73306;BME280;61530;51.158;0.880;2023-08-20T05:19:31;1018.75;;;15.0625;40.2955
73306;BME280;61530;51.158;0.880;2023-08-20T05:20:39;1018.75;;;15.125;40.2897
73306;BME280;61530;51.158;0.880;2023-08-20T05:21:38;1018.78;;;15.125;40.2953
73306;BME280;61530;51.158;0.880;2023-08-20T05:22:44;1018.77;;;15.1875;40.2779
73306;BME280;61530;51.158;0.880;2023-08-20T05:23:50;1018.8;;;15.1875;40.3301
73306;BME280;61530;51.158;0.880;2023-08-20T05:24:50;1018.8;;;15.25;39.8568
73306;BME280;61530;51.158;0.880;2023-08-20T05:25:56;1018.83;;;15.25;39.9034
73306;BME280;61530;51.158;0.880;2023-08-20T05:27:07;1018.84;;;15.375;39.7633
73306;BME280;61530;51.158;0.880;2023-08-20T05:28:03;1018.9;;;15.1875;39.9616
73306;BME280;61530;51.158;0.880;2023-08-20T05:29:08;1018.91;;;15.3125;39.5824
73306;BME280;61530;51.158;0.880;2023-08-20T05:30:14;1018.91;;;15.25;39.6169